Fort Myers, FL

12:34 PM EDT on August 31, 2016 (GMT -0400)
Fort Myers | | Change Station

Elev 0 ft 26.64 °N, 81.87 °W | Updated 3 minutes ago

Mostly Cloudy
Mostly Cloudy
83.1 °F
Feels Like 94 °F
N
3.7
Wind Variable Wind from NE
Gusts 6.8 mph

Today
High -- | Low -- °F
--% Chance of Precip.
Yesterday
High -- | Low -- °F
Precip. -- in
Pressure 29.90 in
Visibility 10.0 miles
Clouds Scattered Clouds 1800 ft
Mostly Cloudy 2400 ft
Heat Index 94 °F
Dew Point 79 °F
Humidity 87%
Rainfall 0.01 in
Snow Depth Not available.
7:06 AM 7:47 PM
Waning Crescent, 1% visible
SPECI KFMY 311625Z VRB05KT 10SM SCT018 BKN024 29/26 A2990 RMK AO2 T02890256
Pressure 29.90 in
Visibility 10.0 miles
Clouds Scattered Clouds 1800 ft
Mostly Cloudy 2400 ft
Heat Index 94 °F
Dew Point 79 °F
Humidity 87%
Rainfall 0.01 in
Snow Depth Not available.
7:06 AM 7:47 PM
Waning Crescent, 1% visible
SPECI KFMY 311625Z VRB05KT 10SM SCT018 BKN024 29/26 A2990 RMK AO2 T02890256

10-Day Weather Forecast

Almanac

Astronomy

Aug. 31, 2016 Rise Set
Actual Time
Civil Twilight
Nautical Twilight
Astronomical Twilight
Moon
Length of Visible Light
Length of Day
Tomorrow will be .
, % of the Moon is Illuminated

Today's Extremes

State Highs State Lows

Community

WunderPhotos

Upload Photos

1,936,115 photos uploaded!

WunderBlog® & News

Nearby

Air Quality

  Air Quality AQ Index Pollutant
Not available.

Snow Depth

Station Depth Elevation

Earthquake Activity

City Distance Mag. Time & Date
Minimum magnitude displayed is 2.5.

Coastal Water Temperatures

Place Temperature

Stations

Nearby Weather Stations

Station Location Temp. Windchill Dew Point Humidity Wind Precip. Elev Updated Type
                   

Watches & Warnings

There are currently no watches in effect.